createdAt,value
2016-11-21T00:01:12.599Z,0
2016-11-21T00:02:28.080Z,0
2016-11-21T00:03:44.796Z,0
2016-11-21T00:05:00.950Z,0
2016-11-21T00:06:17.014Z,0
2016-11-21T00:07:31.770Z,0
2016-11-21T00:08:48.051Z,0
2016-11-21T00:10:02.979Z,0
2016-11-21T00:11:18.899Z,0
2016-11-21T00:12:35.092Z,0
2016-11-21T00:13:50.325Z,0
2016-11-21T00:15:06.607Z,0
2016-11-21T00:16:22.759Z,0
2016-11-21T00:17:38.391Z,0
2016-11-21T00:18:55.387Z,0
2016-11-21T00:20:10.891Z,0
2016-11-21T00:21:27.258Z,0
2016-11-21T00:22:41.945Z,0
2016-11-21T00:23:58.906Z,0
2016-11-21T00:25:15.041Z,0
2016-11-21T00:26:30.812Z,0
2016-11-21T00:27:46.960Z,0
2016-11-21T00:29:00.603Z,0
2016-11-21T00:30:15.925Z,0
2016-11-21T00:31:32.226Z,0
2016-11-21T00:32:47.010Z,0
2016-11-21T00:34:00.751Z,0
2016-11-21T00:35:12.988Z,0
2016-11-21T00:36:26.555Z,0
2016-11-21T00:37:43.117Z,0
2016-11-21T00:38:57.855Z,0
2016-11-21T00:40:13.341Z,0
2016-11-21T00:41:29.734Z,0
2016-11-21T00:42:44.061Z,0
2016-11-21T00:44:00.492Z,0
2016-11-21T00:45:16.469Z,0
2016-11-21T00:46:31.936Z,0
2016-11-21T00:47:48.495Z,0
2016-11-21T00:49:02.954Z,0
2016-11-21T00:50:19.916Z,0
2016-11-21T00:51:34.496Z,0
2016-11-21T00:52:49.169Z,0
2016-11-21T00:54:05.532Z,0
2016-11-21T00:55:22.066Z,0
2016-11-21T00:56:38.211Z,0
2016-11-21T00:57:53.948Z,0
2016-11-21T00:59:08.460Z,0
2016-11-21T01:00:23.272Z,0
2016-11-21T01:01:39.615Z,0
2016-11-21T01:02:56.420Z,0
2016-11-21T01:04:11.735Z,0
2016-11-21T01:05:28.432Z,0
2016-11-21T01:06:41.747Z,0
2016-11-21T01:07:57.884Z,0
2016-11-21T01:09:12.947Z,0
2016-11-21T01:10:28.151Z,0
2016-11-21T01:11:43.968Z,0
2016-11-21T01:13:00.712Z,0
2016-11-21T01:14:15.978Z,0
2016-11-21T01:15:30.726Z,0
2016-11-21T01:16:47.295Z,0
2016-11-21T01:18:01.885Z,0
2016-11-21T01:19:16.996Z,0
2016-11-21T01:20:33.457Z,0
2016-11-21T01:21:49.592Z,0
2016-11-21T01:23:05.502Z,0
2016-11-21T01:24:20.095Z,0
2016-11-21T01:25:36.494Z,0
2016-11-21T01:26:51.406Z,0
2016-11-21T01:28:07.715Z,0
2016-11-21T01:29:24.404Z,0
2016-11-21T01:30:40.486Z,0
2016-11-21T01:31:56.776Z,0
2016-11-21T01:33:13.336Z,0
2016-11-21T01:34:28.789Z,0
2016-11-21T01:35:44.249Z,0
2016-11-21T01:36:57.793Z,0
2016-11-21T01:38:14.254Z,0
2016-11-21T01:39:29.427Z,0
2016-11-21T01:40:45.164Z,0
2016-11-21T01:42:01.444Z,0
2016-11-21T01:43:17.740Z,0
2016-11-21T01:44:34.450Z,0
2016-11-21T01:45:49.282Z,0
2016-11-21T01:47:06.549Z,0
2016-11-21T01:48:22.658Z,0
2016-11-21T01:49:38.926Z,0
2016-11-21T01:50:54.663Z,0
2016-11-21T01:52:11.409Z,0
2016-11-21T01:53:26.006Z,0
2016-11-21T01:54:41.717Z,0
2016-11-21T01:55:57.348Z,0
2016-11-21T01:57:13.649Z,0
2016-11-21T01:58:29.517Z,0
2016-11-21T01:59:43.960Z,0
2016-11-21T02:01:00.522Z,0
2016-11-21T02:02:16.638Z,0
2016-11-21T02:03:32.566Z,0
2016-11-21T02:04:46.932Z,0
2016-11-21T02:06:02.549Z,0
2016-11-21T02:07:18.662Z,0
2016-11-21T02:08:35.349Z,0
2016-11-21T02:09:50.260Z,0
2016-11-21T02:11:06.187Z,0
2016-11-21T02:12:22.479Z,0
2016-11-21T02:13:38.749Z,0
2016-11-21T02:14:54.867Z,0
2016-11-21T02:16:09.726Z,0
2016-11-21T02:17:23.919Z,0
2016-11-21T02:18:40.679Z,0
2016-11-21T02:19:56.969Z,0
2016-11-21T02:21:12.777Z,0
2016-11-21T02:22:28.906Z,0
2016-11-21T02:23:42.560Z,0
2016-11-21T02:24:56.348Z,0
2016-11-21T02:26:11.430Z,0
2016-11-21T02:27:26.306Z,0
2016-11-21T02:28:42.403Z,0
2016-11-21T02:29:57.484Z,0
2016-11-21T02:31:13.872Z,0
2016-11-21T02:32:29.588Z,0
2016-11-21T02:33:44.374Z,0
2016-11-21T02:35:00.410Z,0
2016-11-21T02:36:17.104Z,0
2016-11-21T02:37:33.304Z,0
2016-11-21T02:38:48.165Z,0
2016-11-21T02:40:03.245Z,0
2016-11-21T02:41:18.180Z,0
2016-11-21T02:42:34.723Z,0
2016-11-21T02:43:47.769Z,0
2016-11-21T02:45:02.232Z,0
2016-11-21T02:46:17.505Z,0
2016-11-21T02:47:33.419Z,0
2016-11-21T02:48:50.437Z,0
2016-11-21T02:50:03.557Z,0
2016-11-21T02:51:18.642Z,0
2016-11-21T02:52:31.862Z,0
2016-11-21T02:53:47.903Z,0
2016-11-21T02:55:03.398Z,0
2016-11-21T02:56:19.682Z,0
2016-11-21T02:57:36.305Z,0
2016-11-21T02:58:51.648Z,0
2016-11-21T03:00:07.540Z,0
2016-11-21T03:01:22.527Z,0
2016-11-21T03:02:38.549Z,0
2016-11-21T03:03:53.259Z,0
2016-11-21T03:05:09.887Z,0
2016-11-21T03:06:25.040Z,0
2016-11-21T03:07:41.099Z,0
2016-11-21T03:08:55.746Z,0
2016-11-21T03:10:10.825Z,0
2016-11-21T03:11:27.350Z,0
2016-11-21T03:12:43.217Z,0
2016-11-21T03:13:59.542Z,0
2016-11-21T03:15:15.341Z,0
2016-11-21T03:16:29.938Z,0
2016-11-21T03:17:44.321Z,0
2016-11-21T03:18:59.222Z,0
2016-11-21T03:20:15.706Z,0
2016-11-21T03:21:29.965Z,0
2016-11-21T03:22:44.408Z,0
2016-11-21T03:23:57.673Z,0
2016-11-21T03:25:12.741Z,0
2016-11-21T03:26:25.802Z,0
2016-11-21T03:27:42.092Z,0
2016-11-21T03:28:55.695Z,0
2016-11-21T03:30:12.439Z,0
2016-11-21T03:31:26.041Z,0
2016-11-21T03:32:40.750Z,0
2016-11-21T03:33:56.549Z,0
2016-11-21T03:35:11.483Z,0
2016-11-21T03:36:24.682Z,0
2016-11-21T03:37:40.971Z,0
2016-11-21T03:38:57.008Z,0
2016-11-21T03:40:13.719Z,0
2016-11-21T03:41:28.791Z,0
2016-11-21T03:42:44.203Z,0
2016-11-21T03:44:00.796Z,0
2016-11-21T03:45:15.491Z,0
2016-11-21T03:46:31.616Z,0
2016-11-21T03:47:48.339Z,0
2016-11-21T03:49:02.857Z,0
2016-11-21T03:50:17.689Z,0
2016-11-21T03:51:32.583Z,0
2016-11-21T03:52:49.132Z,0
2016-11-21T03:54:04.447Z,0
2016-11-21T03:55:21.172Z,0
2016-11-21T03:56:35.749Z,0
2016-11-21T03:57:50.430Z,0
2016-11-21T03:59:06.313Z,0
2016-11-21T04:00:22.841Z,0
2016-11-21T04:01:39.907Z,0
2016-11-21T04:02:53.281Z,0
2016-11-21T04:04:09.153Z,0
2016-11-21T04:05:25.911Z,0
2016-11-21T04:06:42.206Z,0
2016-11-21T04:07:59.141Z,0
2016-11-21T04:09:14.796Z,0
2016-11-21T04:10:30.940Z,0
2016-11-21T04:11:46.624Z,0
2016-11-21T04:13:01.693Z,0
2016-11-21T04:14:17.820Z,0
2016-11-21T04:15:34.266Z,0
2016-11-21T04:16:48.621Z,0
2016-11-21T04:18:04.005Z,0
2016-11-21T04:19:18.891Z,0
2016-11-21T04:20:35.748Z,0
2016-11-21T04:21:52.035Z,0
2016-11-21T04:23:07.662Z,0
2016-11-21T04:24:23.571Z,0
2016-11-21T04:25:40.246Z,0
2016-11-21T04:26:52.319Z,0
2016-11-21T04:28:04.227Z,0
2016-11-21T04:29:19.215Z,0
2016-11-21T04:30:34.845Z,0
2016-11-21T04:31:46.619Z,0
2016-11-21T04:33:01.595Z,0
2016-11-21T04:34:16.455Z,0
2016-11-21T04:35:32.650Z,0
2016-11-21T04:36:49.183Z,0
2016-11-21T04:38:04.726Z,0
2016-11-21T04:39:21.600Z,0
2016-11-21T04:40:38.103Z,0
2016-11-21T04:41:51.289Z,0
2016-11-21T04:43:06.209Z,0
2016-11-21T04:44:19.367Z,0
2016-11-21T04:45:35.423Z,0
2016-11-21T04:46:49.687Z,0
2016-11-21T04:48:05.813Z,0
2016-11-21T04:49:21.736Z,0
2016-11-21T04:50:37.491Z,0
2016-11-21T04:51:53.922Z,0
2016-11-21T04:53:10.096Z,0
2016-11-21T04:54:26.794Z,0
2016-11-21T04:55:41.865Z,0
2016-11-21T04:56:56.237Z,0
2016-11-21T04:58:11.141Z,0
2016-11-21T04:59:27.075Z,0
2016-11-21T05:00:42.892Z,0
2016-11-21T05:01:59.019Z,0
2016-11-21T05:03:15.521Z,0
2016-11-21T05:04:32.071Z,0
2016-11-21T05:05:46.910Z,0
2016-11-21T05:07:02.443Z,0
2016-11-21T05:08:17.276Z,0
2016-11-21T05:09:34.221Z,0
2016-11-21T05:10:50.680Z,0
2016-11-21T05:12:07.130Z,0
2016-11-21T05:13:22.229Z,0
2016-11-21T05:14:38.688Z,0
2016-11-21T05:15:55.299Z,0
2016-11-21T05:17:11.668Z,0
2016-11-21T05:18:28.543Z,0
2016-11-21T05:19:44.959Z,0
2016-11-21T05:21:01.502Z,0
2016-11-21T05:22:15.320Z,0
2016-11-21T05:23:30.738Z,0
2016-11-21T05:24:46.629Z,0
2016-11-21T05:26:03.254Z,0
2016-11-21T05:27:19.249Z,0
2016-11-21T05:28:33.174Z,0
2016-11-21T05:29:49.069Z,0
2016-11-21T05:31:04.356Z,0
2016-11-21T05:32:18.613Z,0
2016-11-21T05:33:31.818Z,0
2016-11-21T05:34:46.677Z,0
2016-11-21T05:36:01.623Z,0
2016-11-21T05:37:17.790Z,0
2016-11-21T05:38:34.641Z,0
2016-11-21T05:39:48.107Z,0
2016-11-21T05:41:04.769Z,0
2016-11-21T05:42:20.945Z,0
2016-11-21T05:43:34.928Z,0
2016-11-21T05:44:50.609Z,0
2016-11-21T05:46:03.873Z,0
2016-11-21T05:47:20.432Z,0
2016-11-21T05:48:34.811Z,0
2016-11-21T05:49:51.378Z,0
2016-11-21T05:51:04.622Z,0
2016-11-21T05:52:21.468Z,0
2016-11-21T05:53:36.124Z,0
2016-11-21T05:54:51.537Z,0
2016-11-21T05:56:06.331Z,0
2016-11-21T05:57:21.838Z,0
2016-11-21T05:58:36.757Z,0
2016-11-21T05:59:53.280Z,0
2016-11-21T06:01:08.062Z,0
2016-11-21T06:02:24.584Z,0
2016-11-21T06:03:40.320Z,0
2016-11-21T06:04:53.617Z,0
2016-11-21T06:06:09.846Z,0
2016-11-21T06:07:23.061Z,0
2016-11-21T06:08:38.085Z,0
2016-11-21T06:09:53.603Z,0
2016-11-21T06:11:09.894Z,0
2016-11-21T06:12:24.439Z,0
2016-11-21T06:13:40.865Z,0
2016-11-21T06:14:54.177Z,0
2016-11-21T06:16:07.593Z,0
2016-11-21T06:17:23.971Z,0
2016-11-21T06:18:38.684Z,0
2016-11-21T06:19:55.531Z,0
2016-11-21T06:21:10.697Z,0
2016-11-21T06:22:27.453Z,0
2016-11-21T06:23:40.574Z,0
2016-11-21T06:24:57.209Z,0
2016-11-21T06:26:12.972Z,0
2016-11-21T06:27:27.707Z,0
2016-11-21T06:28:43.219Z,0
2016-11-21T06:29:59.567Z,0
2016-11-21T06:31:14.484Z,0
2016-11-21T06:32:30.933Z,0
2016-11-21T06:33:45.451Z,0
2016-11-21T06:35:01.598Z,0
2016-11-21T06:36:17.279Z,0
2016-11-21T06:37:32.246Z,0
2016-11-21T06:38:46.898Z,0
2016-11-21T06:40:02.650Z,0
2016-11-21T06:41:17.010Z,0
2016-11-21T06:42:33.886Z,0
2016-11-21T06:43:49.798Z,0
2016-11-21T06:45:06.708Z,0
2016-11-21T06:46:22.852Z,0
2016-11-21T06:47:39.051Z,0
2016-11-21T06:48:55.076Z,0
2016-11-21T06:50:08.259Z,0
2016-11-21T06:51:25.347Z,0
2016-11-21T06:52:42.203Z,0
2016-11-21T06:53:56.512Z,0
2016-11-21T06:55:12.913Z,0
2016-11-21T06:56:29.580Z,0
2016-11-21T06:57:45.460Z,5
2016-11-21T06:59:00.807Z,5
2016-11-21T07:00:15.922Z,5
2016-11-21T07:01:30.364Z,5
2016-11-21T07:02:45.716Z,5
2016-11-21T07:04:02.408Z,5
2016-11-21T07:05:18.979Z,5
2016-11-21T07:06:35.421Z,5
2016-11-21T07:07:50.140Z,5
2016-11-21T07:09:03.435Z,5
2016-11-21T07:10:17.938Z,5
2016-11-21T07:11:32.372Z,5
2016-11-21T07:12:48.547Z,5
2016-11-21T07:14:03.048Z,10
2016-11-21T07:15:16.073Z,10
2016-11-21T07:16:31.107Z,10
2016-11-21T07:17:46.822Z,10
2016-11-21T07:19:03.658Z,10
2016-11-21T07:20:16.995Z,10
2016-11-21T07:21:32.963Z,15
2016-11-21T07:22:49.561Z,15
2016-11-21T07:24:04.236Z,15
2016-11-21T07:25:18.728Z,15
2016-11-21T07:26:35.011Z,15
2016-11-21T07:27:51.132Z,10
2016-11-21T07:29:05.912Z,10
2016-11-21T07:30:20.604Z,15
2016-11-21T07:31:34.056Z,15
2016-11-21T07:32:48.991Z,15
2016-11-21T07:34:03.878Z,20
2016-11-21T07:35:18.963Z,20
2016-11-21T07:36:35.340Z,25
2016-11-21T07:37:52.196Z,25
2016-11-21T07:39:07.275Z,30
2016-11-21T07:40:20.931Z,30
2016-11-21T07:41:37.227Z,30
2016-11-21T07:42:51.992Z,25
2016-11-21T07:44:06.651Z,25
2016-11-21T07:45:22.404Z,25
2016-11-21T07:46:39.326Z,30
2016-11-21T07:47:54.676Z,35
2016-11-21T07:49:09.049Z,45
2016-11-21T07:50:24.599Z,50
2016-11-21T07:51:40.936Z,50
2016-11-21T07:52:57.467Z,50
2016-11-21T07:54:14.003Z,50
2016-11-21T07:55:30.447Z,55
2016-11-21T07:56:45.684Z,60
2016-11-21T07:58:01.161Z,65
2016-11-21T07:59:17.122Z,70
2016-11-21T08:00:32.175Z,65
2016-11-21T08:01:48.487Z,70
2016-11-21T08:03:05.177Z,80
2016-11-21T08:04:21.053Z,85
2016-11-21T08:05:36.294Z,85
2016-11-21T08:06:51.033Z,80
2016-11-21T08:08:06.214Z,80
2016-11-21T08:09:21.443Z,85
2016-11-21T08:10:34.861Z,95
2016-11-21T08:11:51.401Z,95
2016-11-21T08:13:06.410Z,85
2016-11-21T08:14:22.409Z,75
2016-11-21T08:15:37.274Z,70
2016-11-21T08:16:53.200Z,70
2016-11-21T08:18:09.656Z,70
2016-11-21T08:19:26.647Z,70
2016-11-21T08:20:42.757Z,70
2016-11-21T08:21:58.742Z,75
2016-11-21T08:23:15.119Z,80
2016-11-21T08:24:31.002Z,80
2016-11-21T08:25:46.319Z,85
2016-11-21T08:27:00.602Z,80
2016-11-21T08:28:14.275Z,75
2016-11-21T08:29:29.414Z,75
2016-11-21T08:30:45.399Z,75
2016-11-21T08:32:00.012Z,75
2016-11-21T08:33:16.763Z,75
2016-11-21T08:34:33.262Z,80
2016-11-21T08:35:50.053Z,90
2016-11-21T08:37:06.343Z,100
2016-11-21T08:38:22.397Z,110
2016-11-21T08:39:38.023Z,115
2016-11-21T08:40:52.736Z,100
2016-11-21T08:42:08.164Z,75
2016-11-21T08:43:22.752Z,65
2016-11-21T08:44:38.911Z,60
2016-11-21T08:45:55.489Z,60
2016-11-21T08:47:11.462Z,65
2016-11-21T08:48:25.928Z,60
2016-11-21T08:49:41.049Z,55
2016-11-21T08:50:57.040Z,55
2016-11-21T08:52:13.757Z,60
2016-11-21T08:53:28.623Z,65
2016-11-21T08:54:43.450Z,70
2016-11-21T08:56:00.013Z,80
2016-11-21T08:57:14.914Z,75
2016-11-21T08:58:31.842Z,75
2016-11-21T08:59:48.131Z,75
2016-11-21T09:01:01.370Z,75
2016-11-21T09:02:18.100Z,75
2016-11-21T09:03:33.268Z,75
2016-11-21T09:04:49.438Z,75
2016-11-21T09:06:06.177Z,85
2016-11-21T09:07:22.871Z,90
2016-11-21T09:08:39.271Z,95
2016-11-21T09:09:53.730Z,100
2016-11-21T09:11:08.742Z,100
2016-11-21T09:12:24.625Z,90
2016-11-21T09:13:40.847Z,90
2016-11-21T09:14:56.742Z,95
2016-11-21T09:16:10.683Z,95
2016-11-21T09:17:27.784Z,100
2016-11-21T09:18:44.160Z,105
2016-11-21T09:19:58.978Z,115
2016-11-21T09:21:15.018Z,130
2016-11-21T09:22:31.411Z,145
2016-11-21T09:23:44.791Z,155
2016-11-21T09:25:01.339Z,150
2016-11-21T09:26:16.429Z,145
2016-11-21T09:27:32.993Z,140
2016-11-21T09:28:46.222Z,145
2016-11-21T09:30:02.204Z,145
2016-11-21T09:31:16.739Z,145
2016-11-21T09:32:29.880Z,150
2016-11-21T09:33:44.959Z,155
2016-11-21T09:34:57.388Z,145
2016-11-21T09:36:14.097Z,140
2016-11-21T09:37:27.975Z,140
2016-11-21T09:38:43.275Z,130
2016-11-21T09:40:00.333Z,125
2016-11-21T09:41:16.931Z,130
2016-11-21T09:42:33.375Z,130
2016-11-21T09:43:49.670Z,115
2016-11-21T09:45:06.819Z,100
2016-11-21T09:46:22.445Z,95
2016-11-21T09:47:38.485Z,95
2016-11-21T09:48:53.630Z,90
2016-11-21T09:50:09.388Z,95
2016-11-21T09:51:25.270Z,110
2016-11-21T09:52:40.607Z,115
2016-11-21T09:53:55.719Z,110
2016-11-21T09:55:10.463Z,115
2016-11-21T09:56:26.833Z,125
2016-11-21T09:57:43.216Z,125
2016-11-21T09:58:59.624Z,125
2016-11-21T10:00:12.385Z,105
2016-11-21T10:01:26.996Z,105
2016-11-21T10:02:43.658Z,110
2016-11-21T10:03:59.704Z,105
2016-11-21T10:05:14.937Z,110
2016-11-21T10:06:30.896Z,125
2016-11-21T10:07:47.563Z,165
2016-11-21T10:09:04.127Z,195
2016-11-21T10:10:20.211Z,215
2016-11-21T10:11:34.705Z,190
2016-11-21T10:12:50.832Z,140
2016-11-21T10:14:05.863Z,110
2016-11-21T10:15:21.616Z,90
2016-11-21T10:16:38.343Z,70
2016-11-21T10:17:53.026Z,70
2016-11-21T10:19:07.287Z,80
2016-11-21T10:20:19.070Z,70
2016-11-21T10:21:33.422Z,65
2016-11-21T10:22:49.542Z,70
2016-11-21T10:24:06.527Z,85
2016-11-21T10:25:22.865Z,90
2016-11-21T10:26:39.535Z,80
2016-11-21T10:27:51.624Z,75
2016-11-21T10:29:06.060Z,80
2016-11-21T10:30:20.674Z,75
2016-11-21T10:31:37.421Z,70
2016-11-21T10:32:51.372Z,75
2016-11-21T10:34:08.355Z,80
2016-11-21T10:35:24.859Z,75
2016-11-21T10:36:41.462Z,90
2016-11-21T10:37:57.782Z,85
2016-11-21T10:39:13.057Z,100
2016-11-21T10:40:24.835Z,100
2016-11-21T10:41:41.314Z,90
2016-11-21T10:42:55.848Z,95
2016-11-21T10:44:12.037Z,100
2016-11-21T10:45:28.507Z,100
2016-11-21T10:46:43.740Z,105
2016-11-21T10:48:00.054Z,95
2016-11-21T10:49:15.043Z,100
2016-11-21T10:50:29.292Z,100
2016-11-21T10:51:45.455Z,115
2016-11-21T10:53:01.983Z,115
2016-11-21T10:54:18.318Z,120
2016-11-21T10:55:33.245Z,115
2016-11-21T10:56:48.034Z,120
2016-11-21T10:58:02.749Z,130
2016-11-21T10:59:19.509Z,135
2016-11-21T11:00:34.893Z,145
2016-11-21T11:01:49.812Z,155
2016-11-21T11:03:05.859Z,185
2016-11-21T11:04:21.920Z,215
2016-11-21T11:05:36.878Z,225
2016-11-21T11:06:53.256Z,220
2016-11-21T11:08:09.386Z,240
2016-11-21T11:09:25.919Z,260
2016-11-21T11:10:42.026Z,255
2016-11-21T11:11:58.647Z,220
2016-11-21T11:13:14.450Z,195
2016-11-21T11:14:31.036Z,175
2016-11-21T11:15:47.086Z,150
2016-11-21T11:17:01.999Z,150
2016-11-21T11:18:16.884Z,150
2016-11-21T11:19:31.408Z,150
2016-11-21T11:20:47.405Z,155
2016-11-21T11:22:03.546Z,165
2016-11-21T11:23:19.687Z,160
2016-11-21T11:24:35.926Z,175
2016-11-21T11:25:48.669Z,185
2016-11-21T11:27:03.268Z,185
2016-11-21T11:28:19.809Z,185
2016-11-21T11:29:33.030Z,160
2016-11-21T11:30:49.196Z,155
2016-11-21T11:32:05.454Z,150
2016-11-21T11:33:20.193Z,140
2016-11-21T11:34:37.153Z,130
2016-11-21T11:35:52.825Z,125
2016-11-21T11:37:09.145Z,120
2016-11-21T11:38:25.744Z,120
2016-11-21T11:39:41.294Z,125
2016-11-21T11:40:57.061Z,125
2016-11-21T11:42:13.804Z,125
2016-11-21T11:43:28.504Z,140
2016-11-21T11:44:42.863Z,150
2016-11-21T11:45:59.136Z,135
2016-11-21T11:47:13.639Z,130
2016-11-21T11:48:28.720Z,120
2016-11-21T11:49:45.284Z,110
2016-11-21T11:51:00.602Z,110
2016-11-21T11:52:15.349Z,105
2016-11-21T11:53:29.586Z,100
2016-11-21T11:54:45.065Z,90
2016-11-21T11:56:01.477Z,85
2016-11-21T11:57:17.426Z,90
2016-11-21T11:58:32.986Z,85
2016-11-21T11:59:49.429Z,80
2016-11-21T12:01:03.863Z,90
2016-11-21T12:02:20.435Z,95
2016-11-21T12:03:36.987Z,100
2016-11-21T12:04:51.961Z,100
2016-11-21T12:06:08.265Z,100
2016-11-21T12:07:24.242Z,100
2016-11-21T12:08:39.498Z,100
2016-11-21T12:09:53.337Z,100
2016-11-21T12:11:09.367Z,100
2016-11-21T12:12:24.052Z,95
2016-11-21T12:13:37.709Z,90
2016-11-21T12:14:53.611Z,95
2016-11-21T12:16:08.577Z,95
2016-11-21T12:17:24.399Z,90
2016-11-21T12:18:40.993Z,95
2016-11-21T12:19:57.167Z,95
2016-11-21T12:21:10.828Z,105
2016-11-21T12:22:23.989Z,115
2016-11-21T12:23:40.159Z,130
2016-11-21T12:24:55.639Z,135
2016-11-21T12:26:10.362Z,140
2016-11-21T12:27:26.367Z,140
2016-11-21T12:28:41.172Z,130
2016-11-21T12:29:57.355Z,130
2016-11-21T12:31:14.057Z,130
2016-11-21T12:32:29.484Z,135
2016-11-21T12:33:46.195Z,145
2016-11-21T12:35:01.969Z,155
2016-11-21T12:36:17.256Z,150
2016-11-21T12:37:33.794Z,145
2016-11-21T12:38:48.545Z,145
2016-11-21T12:40:04.462Z,145
2016-11-21T12:41:20.645Z,150
2016-11-21T12:42:35.136Z,145
2016-11-21T12:43:49.563Z,130
2016-11-21T12:45:05.558Z,115
2016-11-21T12:46:21.843Z,110
2016-11-21T12:47:37.670Z,120
2016-11-21T12:48:54.820Z,120
2016-11-21T12:50:10.983Z,125
2016-11-21T12:51:27.112Z,135
2016-11-21T12:52:42.705Z,150
2016-11-21T12:53:56.484Z,170
2016-11-21T12:55:11.312Z,175
2016-11-21T12:56:26.972Z,170
2016-11-21T12:57:41.404Z,170
2016-11-21T12:58:55.696Z,155
2016-11-21T13:00:12.382Z,160
2016-11-21T13:01:29.244Z,170
2016-11-21T13:02:45.244Z,175
2016-11-21T13:04:00.519Z,180
2016-11-21T13:05:15.346Z,190
2016-11-21T13:06:31.008Z,190
2016-11-21T13:07:47.743Z,190
2016-11-21T13:09:04.876Z,190
2016-11-21T13:10:20.314Z,180
2016-11-21T13:11:37.191Z,175
2016-11-21T13:12:52.735Z,165
2016-11-21T13:14:08.922Z,160
2016-11-21T13:15:23.790Z,150
2016-11-21T13:16:40.120Z,145
2016-11-21T13:17:56.925Z,145
2016-11-21T13:19:10.326Z,140
2016-11-21T13:20:25.812Z,135
2016-11-21T13:21:40.224Z,135
2016-11-21T13:22:51.853Z,140
2016-11-21T13:24:08.567Z,145
2016-11-21T13:25:25.111Z,165
2016-11-21T13:26:41.400Z,185
2016-11-21T13:27:56.871Z,190
2016-11-21T13:29:10.281Z,185
2016-11-21T13:30:25.092Z,170
2016-11-21T13:31:41.842Z,155
2016-11-21T13:32:56.355Z,145
2016-11-21T13:34:12.706Z,135
2016-11-21T13:35:27.789Z,130
2016-11-21T13:36:42.890Z,130
2016-11-21T13:37:57.337Z,135
2016-11-21T13:39:10.742Z,135
2016-11-21T13:40:25.616Z,130
2016-11-21T13:41:40.260Z,130
2016-11-21T13:42:56.789Z,125
2016-11-21T13:44:10.981Z,115
2016-11-21T13:45:27.095Z,110
2016-11-21T13:46:41.029Z,105
2016-11-21T13:47:56.119Z,100
2016-11-21T13:49:12.508Z,80
2016-11-21T13:50:27.014Z,65
2016-11-21T13:51:43.325Z,65
2016-11-21T13:52:58.615Z,60
2016-11-21T13:54:12.484Z,60
2016-11-21T13:55:28.449Z,55
2016-11-21T13:56:43.169Z,55
2016-11-21T13:58:00.013Z,55
2016-11-21T13:59:15.640Z,55
2016-11-21T14:00:32.347Z,60
2016-11-21T14:01:46.772Z,60
2016-11-21T14:03:01.990Z,60
2016-11-21T14:04:17.568Z,55
2016-11-21T14:05:32.355Z,55
2016-11-21T14:06:45.818Z,55
2016-11-21T14:08:01.604Z,50
2016-11-21T14:09:14.416Z,45
2016-11-21T14:10:30.593Z,55
2016-11-21T14:11:45.485Z,55
2016-11-21T14:13:00.717Z,50
2016-11-21T14:14:15.147Z,45
2016-11-21T14:15:30.770Z,40
2016-11-21T14:16:45.854Z,45
2016-11-21T14:18:02.847Z,45
2016-11-21T14:19:19.626Z,45
2016-11-21T14:20:34.882Z,45
2016-11-21T14:21:48.386Z,45
2016-11-21T14:23:03.218Z,40
2016-11-21T14:24:18.739Z,40
2016-11-21T14:25:34.213Z,40
2016-11-21T14:26:50.325Z,40
2016-11-21T14:28:07.278Z,40
2016-11-21T14:29:23.011Z,40
2016-11-21T14:30:35.985Z,35
2016-11-21T14:31:52.274Z,35
2016-11-21T14:33:07.773Z,35
2016-11-21T14:34:24.105Z,35
2016-11-21T14:35:40.283Z,35
2016-11-21T14:36:56.462Z,30
2016-11-21T14:38:12.980Z,30
2016-11-21T14:39:29.696Z,30
2016-11-21T14:40:46.239Z,25
2016-11-21T14:42:03.215Z,20
2016-11-21T14:43:19.604Z,20
2016-11-21T14:44:35.538Z,20
2016-11-21T14:45:52.418Z,20
2016-11-21T14:47:04.288Z,20
2016-11-21T14:48:17.350Z,15
2016-11-21T14:49:33.917Z,15
2016-11-21T14:50:50.640Z,20
2016-11-21T14:52:07.594Z,20
2016-11-21T14:53:22.125Z,25
2016-11-21T14:54:38.492Z,30
2016-11-21T14:55:53.329Z,30
2016-11-21T14:57:08.416Z,25
2016-11-21T14:58:23.166Z,25
2016-11-21T14:59:39.189Z,25
2016-11-21T15:00:54.765Z,20
2016-11-21T15:02:10.683Z,20
2016-11-21T15:03:24.770Z,20
2016-11-21T15:04:41.477Z,20
2016-11-21T15:05:58.042Z,20
2016-11-21T15:07:12.895Z,20
2016-11-21T15:08:26.761Z,20
2016-11-21T15:09:43.065Z,15
2016-11-21T15:10:59.471Z,10
2016-11-21T15:12:15.680Z,10
2016-11-21T15:13:30.728Z,10
2016-11-21T15:14:47.000Z,10
2016-11-21T15:16:02.087Z,10
2016-11-21T15:17:17.435Z,10
2016-11-21T15:18:31.402Z,5
2016-11-21T15:19:46.974Z,5
2016-11-21T15:21:03.119Z,5
2016-11-21T15:22:17.552Z,5
2016-11-21T15:23:34.218Z,0
2016-11-21T15:24:50.134Z,0
2016-11-21T15:26:06.682Z,0
2016-11-21T15:27:23.192Z,0
2016-11-21T15:28:39.273Z,0
2016-11-21T15:29:53.970Z,0
2016-11-21T15:31:10.826Z,0
2016-11-21T15:32:26.811Z,0
2016-11-21T15:33:41.661Z,0
2016-11-21T15:34:56.898Z,0
2016-11-21T15:36:13.454Z,0
2016-11-21T15:37:28.997Z,0
2016-11-21T15:38:45.953Z,0
2016-11-21T15:40:02.786Z,0
2016-11-21T15:41:15.915Z,0
2016-11-21T15:42:30.916Z,0
2016-11-21T15:43:46.058Z,0
2016-11-21T15:45:00.368Z,0
2016-11-21T15:46:16.587Z,0
2016-11-21T15:47:32.898Z,0
2016-11-21T15:48:49.285Z,0
2016-11-21T15:50:04.510Z,0
2016-11-21T15:51:21.211Z,0
2016-11-21T15:52:35.643Z,0
2016-11-21T15:53:50.499Z,0
2016-11-21T15:55:05.832Z,0
2016-11-21T15:56:21.094Z,0
2016-11-21T15:57:35.831Z,0
2016-11-21T15:58:52.370Z,0
2016-11-21T16:00:07.240Z,0
2016-11-21T16:01:23.546Z,0
2016-11-21T16:02:39.480Z,0
2016-11-21T16:03:54.657Z,0
2016-11-21T16:05:11.061Z,0
2016-11-21T16:06:27.560Z,0
2016-11-21T16:07:44.562Z,0
2016-11-21T16:09:00.718Z,0
2016-11-21T16:10:12.324Z,0
2016-11-21T16:11:28.505Z,0
2016-11-21T16:12:43.854Z,0
2016-11-21T16:13:58.153Z,0
2016-11-21T16:15:13.708Z,0
2016-11-21T16:16:29.802Z,0
2016-11-21T16:17:46.348Z,0
2016-11-21T16:19:02.727Z,0
2016-11-21T16:20:19.287Z,0
2016-11-21T16:21:34.594Z,0
2016-11-21T16:22:50.757Z,0
2016-11-21T16:24:05.842Z,0
2016-11-21T16:25:20.761Z,0
2016-11-21T16:26:34.523Z,0
2016-11-21T16:27:51.854Z,0
2016-11-21T16:29:07.173Z,0
2016-11-21T16:30:22.060Z,0
2016-11-21T16:31:38.139Z,0
2016-11-21T16:32:51.996Z,0
2016-11-21T16:34:07.640Z,0
2016-11-21T16:35:22.058Z,0
2016-11-21T16:36:37.117Z,0
2016-11-21T16:37:54.127Z,0
2016-11-21T16:39:11.020Z,0
2016-11-21T16:40:27.223Z,0
2016-11-21T16:41:41.669Z,0
2016-11-21T16:42:57.979Z,0
2016-11-21T16:44:12.952Z,0
2016-11-21T16:45:24.819Z,0
2016-11-21T16:46:38.413Z,0
2016-11-21T16:47:54.795Z,0
2016-11-21T16:49:09.811Z,0
2016-11-21T16:50:24.649Z,0
2016-11-21T16:51:40.659Z,0
2016-11-21T16:52:54.257Z,0
2016-11-21T16:54:09.189Z,0
2016-11-21T16:55:25.912Z,0
2016-11-21T16:56:42.366Z,0
2016-11-21T16:57:57.886Z,0
2016-11-21T16:59:14.576Z,0
2016-11-21T17:00:31.031Z,0
2016-11-21T17:01:46.300Z,0
2016-11-21T17:03:01.613Z,0
2016-11-21T17:04:16.367Z,0
2016-11-21T17:05:33.224Z,0
2016-11-21T17:06:50.351Z,0
2016-11-21T17:08:05.610Z,0
2016-11-21T17:09:21.795Z,0
2016-11-21T17:10:38.254Z,0
2016-11-21T17:11:54.353Z,0
2016-11-21T17:13:09.046Z,0
2016-11-21T17:14:25.118Z,0
2016-11-21T17:15:41.648Z,0
2016-11-21T17:16:57.290Z,0
2016-11-21T17:18:11.930Z,0
2016-11-21T17:19:26.537Z,0
2016-11-21T17:20:40.530Z,0
2016-11-21T17:21:56.998Z,0
2016-11-21T17:23:13.123Z,0
2016-11-21T17:24:28.282Z,0
2016-11-21T17:25:45.131Z,0
2016-11-21T17:27:00.299Z,0
2016-11-21T17:28:17.012Z,0
2016-11-21T17:29:31.386Z,0
2016-11-21T17:30:47.747Z,0
2016-11-21T17:32:02.697Z,0
2016-11-21T17:33:19.003Z,0
2016-11-21T17:34:35.756Z,0
2016-11-21T17:35:52.893Z,0
2016-11-21T17:37:09.721Z,0
2016-11-21T17:38:26.262Z,0
2016-11-21T17:39:42.373Z,0
2016-11-21T17:40:58.694Z,0
2016-11-21T17:42:15.097Z,0
2016-11-21T17:43:28.452Z,0
2016-11-21T17:44:43.457Z,0
2016-11-21T17:45:58.655Z,0
2016-11-21T17:47:15.772Z,0
2016-11-21T17:48:32.262Z,0
2016-11-21T17:49:47.130Z,0
2016-11-21T17:51:01.507Z,0
2016-11-21T17:52:17.598Z,0
2016-11-21T17:53:33.662Z,0
2016-11-21T17:54:49.312Z,0
2016-11-21T17:56:06.212Z,0
2016-11-21T17:57:19.825Z,0
2016-11-21T17:58:36.948Z,0
2016-11-21T17:59:52.844Z,0
2016-11-21T18:01:08.318Z,0
2016-11-21T18:02:21.785Z,0
2016-11-21T18:03:37.062Z,0
2016-11-21T18:04:51.603Z,0
2016-11-21T18:06:06.880Z,0
2016-11-21T18:07:22.615Z,0
2016-11-21T18:08:37.950Z,0
2016-11-21T18:09:54.711Z,0
2016-11-21T18:11:11.303Z,0